»·PEaware :: FDX1807 KPDX-KOAK

FDX1807 :: KPDX-KOAK

FLIGHT INFORMATION

Flight Status: Arrived
Operator:
Federal Express
More flights by this operator :: More flights under this callsign
Pilot: Elliott T. (30246)
Aircraft: BOEING 767-300
(B763)
More flights by this aircraft type
Origin: KPDX Portland Intl
United States
Destination: KOAK Metro Oakland Intl
United States
More flights between these airports :: More routes between these airports
Route: MINNE5 HISKU Q5 HUPTU SPAMY WNDSR2
File this flight plan on PilotEdge
Remarks:
Altitude:
(Current/Filed)
35,000ft
Speed:
(Current/Filed)
457kts
Departed: 11-Jul-20 09:34 PM
Arrived: 11-Jul-20 11:00 PM
Distance/Time
Traveled:
473nm/1:26
Distance/Time
To Go:
Arrived

Flight Plot

Page will automatically refresh every two minutes.


Map Options




Map Legend


Flown Route
Filed Route
Departure Airport
Arrival Airport
Navaid (VOR, NDB)
Fix

Horizontal Profiles

Position Reports

Time Latitude Longitude Heading Altitude Ground
Speed
11-Jul-20 21:00 45.580414 -122.611668 166 25ft 0kts
11-Jul-20 21:01 45.580414 -122.611668 166 25ft 0kts
11-Jul-20 21:02 45.580414 -122.611668 166 24ft 0kts
11-Jul-20 21:03 45.580414 -122.611668 166 24ft 0kts
11-Jul-20 21:04 45.580414 -122.611668 166 24ft 0kts
11-Jul-20 21:05 45.580414 -122.611668 166 24ft 0kts
11-Jul-20 21:06 45.580414 -122.611668 166 24ft 0kts
11-Jul-20 21:07 45.580414 -122.611668 166 24ft 0kts
11-Jul-20 21:08 45.580414 -122.611668 166 24ft 0kts
11-Jul-20 21:09 45.580414 -122.611668 166 24ft 0kts
11-Jul-20 21:10 45.580414 -122.611668 166 24ft 0kts
11-Jul-20 21:11 45.580414 -122.611668 166 24ft 0kts
11-Jul-20 21:12 45.580414 -122.611668 166 24ft 0kts
11-Jul-20 21:13 45.580414 -122.611668 166 24ft 0kts
11-Jul-20 21:14 45.580414 -122.611668 166 24ft 0kts
11-Jul-20 21:15 45.580414 -122.611668 166 24ft 0kts
11-Jul-20 21:16 45.580415 -122.611668 166 24ft 0kts
11-Jul-20 21:17 45.580239 -122.611516 130 24ft 3kts
11-Jul-20 21:18 45.580685 -122.610210 3 24ft 3kts
11-Jul-20 21:19 45.581023 -122.610756 276 24ft 0kts
11-Jul-20 21:20 45.581023 -122.610757 276 24ft 0kts
11-Jul-20 21:21 45.581023 -122.610756 276 24ft 0kts
11-Jul-20 21:22 45.581578 -122.611791 315 24ft 0kts
11-Jul-20 21:23 45.581578 -122.611791 315 24ft 0kts
11-Jul-20 21:24 45.582946 -122.613349 359 24ft 16kts
11-Jul-20 21:25 45.587590 -122.607341 33 24ft 14kts
11-Jul-20 21:26 45.589692 -122.610913 285 25ft 13kts
11-Jul-20 21:27 45.590742 -122.616165 298 24ft 14kts
11-Jul-20 21:28 45.592661 -122.621044 298 26ft 13kts
11-Jul-20 21:29 45.592942 -122.621778 298 27ft 2kts
11-Jul-20 21:30 45.593710 -122.622369 15 28ft 4kts
11-Jul-20 21:31 45.594017 -122.622204 21 28ft 3kts
11-Jul-20 21:32 45.594813 -122.620713 111 28ft 8kts
11-Jul-20 21:33 45.584574 -122.594707 119 241ft 193kts
11-Jul-20 21:34 45.568539 -122.510576 89 3125ft 260kts
11-Jul-20 21:35 45.555243 -122.404194 103 6826ft 289kts
11-Jul-20 21:36 45.507041 -122.324039 175 7224ft 278kts
11-Jul-20 21:37 45.434005 -122.329259 227 10621ft 265kts
11-Jul-20 21:38 45.395367 -122.431067 246 13060ft 328kts
11-Jul-20 21:39 45.355356 -122.555156 247 16773ft 356kts
11-Jul-20 21:40 45.313569 -122.685414 246 20468ft 370kts
11-Jul-20 21:41 45.269766 -122.821184 246 23023ft 393kts
11-Jul-20 21:42 45.202348 -122.935848 213 24249ft 401kts
11-Jul-20 21:43 45.087785 -122.962387 187 27036ft 441kts
11-Jul-20 21:44 44.963638 -122.959688 185 29765ft 448kts
11-Jul-20 21:45 44.838187 -122.955591 185 31949ft 455kts
11-Jul-20 21:46 44.710813 -122.951271 185 33664ft 461kts
11-Jul-20 21:47 44.583713 -122.946984 185 35224ft 459kts
11-Jul-20 21:48 44.457230 -122.942831 186 35229ft 453kts
11-Jul-20 21:49 44.330624 -122.938936 186 35220ft 454kts
11-Jul-20 21:50 44.204802 -122.935085 186 35220ft 454kts
11-Jul-20 21:51 44.078817 -122.931226 186 35217ft 454kts
11-Jul-20 21:52 43.952798 -122.927400 186 35218ft 455kts
11-Jul-20 21:53 43.826957 -122.923581 186 35222ft 453kts
11-Jul-20 21:54 43.700694 -122.919768 186 35218ft 453kts
11-Jul-20 21:55 43.574931 -122.915998 186 35211ft 453kts
11-Jul-20 21:57 43.449567 -122.912244 186 35202ft 453kts
11-Jul-20 21:58 43.323981 -122.908500 186 35201ft 452kts
11-Jul-20 21:59 43.198162 -122.904765 185 35200ft 452kts
11-Jul-20 22:00 43.072895 -122.901065 186 35200ft 452kts
11-Jul-20 22:01 42.947423 -122.897382 185 35165ft 453kts
11-Jul-20 22:02 42.821672 -122.893689 185 35130ft 454kts
11-Jul-20 22:03 42.695807 -122.890007 185 35130ft 454kts
11-Jul-20 22:04 42.569850 -122.886355 185 35129ft 455kts
11-Jul-20 22:05 42.443806 -122.882710 185 35124ft 453kts
11-Jul-20 22:06 42.317954 -122.879092 185 35128ft 453kts
11-Jul-20 22:07 42.192031 -122.875490 185 35128ft 452kts
11-Jul-20 22:08 42.066541 -122.871916 185 35127ft 453kts
11-Jul-20 22:09 41.940497 -122.868347 185 35125ft 453kts
11-Jul-20 22:10 41.815861 -122.864878 185 35127ft 453kts
11-Jul-20 22:11 41.689084 -122.861264 185 35128ft 453kts
11-Jul-20 22:12 41.563069 -122.857725 185 35132ft 454kts
11-Jul-20 22:13 41.437528 -122.854225 185 35129ft 453kts
11-Jul-20 22:14 41.311778 -122.850023 184 35129ft 454kts
11-Jul-20 22:14 41.206883 -122.843676 184 35127ft 455kts
11-Jul-20 22:16 41.059925 -122.834898 184 35085ft 454kts
11-Jul-20 22:17 40.934832 -122.827455 184 34961ft 450kts
11-Jul-20 22:17 40.832484 -122.821403 184 34967ft 451kts
11-Jul-20 22:19 40.686717 -122.812805 184 34966ft 451kts
11-Jul-20 22:19 40.582409 -122.806674 184 34966ft 450kts
11-Jul-20 22:20 40.457420 -122.799354 184 34964ft 451kts
11-Jul-20 22:21 40.332574 -122.792070 184 34965ft 452kts
11-Jul-20 22:22 40.207352 -122.784788 184 34969ft 451kts
11-Jul-20 22:23 40.082252 -122.777542 184 34972ft 451kts
11-Jul-20 22:24 39.957104 -122.770322 184 34973ft 451kts
11-Jul-20 22:25 39.832557 -122.763164 184 34976ft 452kts
11-Jul-20 22:26 39.707389 -122.755994 184 34427ft 451kts
11-Jul-20 22:27 39.584818 -122.748982 183 32295ft 439kts
11-Jul-20 22:28 39.462351 -122.724331 164 30198ft 463kts
11-Jul-20 22:29 39.343515 -122.663866 163 27906ft 454kts
11-Jul-20 22:30 39.228622 -122.605273 163 25752ft 440kts
11-Jul-20 22:31 39.117164 -122.579507 178 24148ft 394kts
11-Jul-20 22:32 39.010809 -122.560980 172 22204ft 385kts
11-Jul-20 22:33 38.907947 -122.535109 171 20403ft 369kts
11-Jul-20 22:34 38.809003 -122.510428 170 18558ft 358kts
11-Jul-20 22:35 38.713162 -122.486548 170 16814ft 348kts
11-Jul-20 22:36 38.618848 -122.468995 174 15198ft 340kts
11-Jul-20 22:37 38.525727 -122.454909 174 13623ft 334kts
11-Jul-20 22:38 38.434738 -122.441071 173 12086ft 327kts
11-Jul-20 22:39 38.345481 -122.427523 173 10582ft 320kts
11-Jul-20 22:40 38.262188 -122.414899 173 9717ft 277kts
11-Jul-20 22:41 38.187543 -122.403499 173 9060ft 266kts
11-Jul-20 22:42 38.114326 -122.392244 174 8117ft 272kts
11-Jul-20 22:43 38.039760 -122.380870 174 7201ft 267kts
11-Jul-20 22:44 37.975671 -122.335206 145 6581ft 270kts
11-Jul-20 22:45 37.915764 -122.278310 144 6064ft 269kts
11-Jul-20 22:46 37.856018 -122.221439 144 5553ft 268kts
11-Jul-20 22:47 37.796742 -122.165193 144 5057ft 265kts
11-Jul-20 22:48 37.748816 -122.095223 129 4963ft 255kts
11-Jul-20 22:49 37.707422 -122.028220 128 4970ft 238kts
11-Jul-20 22:50 37.668196 -121.960082 125 4313ft 239kts
11-Jul-20 22:51 37.626003 -121.898563 154 3962ft 231kts
11-Jul-20 22:52 37.576761 -121.927995 251 3953ft 201kts
11-Jul-20 22:53 37.585112 -121.997096 283 3973ft 199kts
11-Jul-20 22:54 37.602093 -122.055440 307 3429ft 171kts
11-Jul-20 22:55 37.630332 -122.101608 308 1986ft 161kts
11-Jul-20 22:56 37.655031 -122.144172 306 1090ft 147kts
11-Jul-20 22:57 37.681122 -122.183129 310 593ft 146kts
11-Jul-20 22:58 37.706493 -122.221612 308 15ft 120kts
11-Jul-20 22:59 37.714750 -122.230786 90 15ft 8kts

Navigation Log

Ident Type
Flight plan parsing failed, navigation log unavailable